createdAt,value
2023-02-03T00:00:54.502Z,82.41
2023-02-03T00:03:34.164Z,82.50
2023-02-03T00:06:11.831Z,82.38
2023-02-03T00:08:40.353Z,81.87
2023-02-03T00:11:09.018Z,81.91
2023-02-03T00:13:37.700Z,82.43
2023-02-03T00:16:07.623Z,81.88
2023-02-03T00:18:37.347Z,82.37
2023-02-03T00:21:06.125Z,82.00
2023-02-03T00:23:35.159Z,81.78
2023-02-03T00:26:09.417Z,81.88
2023-02-03T00:28:38.176Z,81.47
2023-02-03T00:31:06.981Z,82.19
2023-02-03T00:33:35.381Z,82.08
2023-02-03T00:36:08.042Z,81.43
2023-02-03T00:38:36.347Z,81.70
2023-02-03T00:41:04.715Z,81.83
2023-02-03T00:43:33.085Z,81.73
2023-02-03T00:46:01.478Z,81.41
2023-02-03T00:48:30.519Z,81.80
2023-02-03T00:50:58.880Z,81.73
2023-02-03T00:53:28.502Z,81.03
2023-02-03T00:55:56.974Z,81.30
2023-02-03T00:58:25.324Z,81.30
2023-02-03T01:00:55.822Z,81.15
2023-02-03T01:03:24.307Z,80.92
2023-02-03T01:05:52.662Z,81.01
2023-02-03T01:08:21.021Z,81.21
2023-02-03T01:10:50.787Z,81.22
2023-02-03T01:13:19.359Z,80.80
2023-02-03T01:15:48.866Z,80.96
2023-02-03T01:18:17.153Z,80.71
2023-02-03T01:20:48.168Z,80.53
2023-02-03T01:23:16.490Z,80.77
2023-02-03T01:25:44.884Z,80.55
2023-02-03T01:28:14.819Z,80.83
2023-02-03T01:30:43.316Z,80.52
2023-02-03T01:33:11.719Z,80.82
2023-02-03T01:35:40.057Z,80.41
2023-02-03T01:38:08.741Z,80.37
2023-02-03T01:40:46.326Z,80.02
2023-02-03T01:46:19.604Z,79.71
2023-02-03T01:48:48.027Z,79.70
2023-02-03T01:51:16.569Z,79.47
2023-02-03T01:53:45.626Z,79.55
2023-02-03T01:56:14.003Z,79.14
2023-02-03T01:58:43.582Z,79.39
2023-02-03T02:01:13.368Z,79.35
2023-02-03T02:03:46.069Z,79.59
2023-02-03T02:06:15.674Z,79.30
2023-02-03T02:08:49.352Z,78.86
2023-02-03T02:11:18.552Z,78.99
2023-02-03T02:13:48.633Z,78.47
2023-02-03T02:16:26.850Z,78.34
2023-02-03T02:19:11.000Z,78.85
2023-02-03T02:22:07.453Z,78.10
2023-02-03T02:25:00.451Z,78.44
2023-02-03T02:27:57.796Z,77.88
2023-02-03T02:30:56.183Z,78.16
2023-02-03T02:33:37.991Z,78.02
2023-02-03T02:36:14.713Z,77.97
2023-02-03T02:38:51.641Z,77.90
2023-02-03T02:41:25.899Z,77.83
2023-02-03T02:44:02.440Z,77.65
2023-02-03T02:46:36.182Z,77.86
2023-02-03T02:49:12.100Z,77.09
2023-02-03T02:51:43.852Z,77.38
2023-02-03T02:54:17.374Z,77.28
2023-02-03T02:56:49.608Z,77.13
2023-02-03T02:59:18.068Z,77.16
2023-02-03T03:01:46.542Z,76.76
2023-02-03T03:04:23.224Z,76.38
2023-02-03T03:06:57.141Z,76.31
2023-02-03T03:09:29.712Z,76.95
2023-02-03T03:12:07.752Z,76.44
2023-02-03T03:14:42.429Z,76.77
2023-02-03T03:17:14.706Z,76.37
2023-02-03T03:19:51.494Z,76.61
2023-02-03T03:22:25.731Z,76.58
2023-02-03T03:24:59.431Z,76.72
2023-02-03T03:27:33.455Z,76.78
2023-02-03T03:30:06.313Z,76.63
2023-02-03T03:32:35.000Z,77.13
2023-02-03T03:35:07.510Z,76.43
2023-02-03T03:37:39.280Z,76.60
2023-02-03T03:40:11.835Z,76.56
2023-02-03T03:42:55.924Z,76.48
2023-02-03T03:45:28.236Z,76.22
2023-02-03T03:48:12.630Z,76.08
2023-02-03T03:50:47.016Z,76.36
2023-02-03T03:53:18.285Z,75.53
2023-02-03T03:55:49.873Z,76.03
2023-02-03T03:58:23.248Z,75.91
2023-02-03T04:00:52.448Z,75.56
2023-02-03T04:03:25.024Z,75.61
2023-02-03T04:05:54.897Z,75.15
2023-02-03T04:08:26.104Z,75.09
2023-02-03T04:10:54.439Z,75.27
2023-02-03T04:13:22.841Z,75.00
2023-02-03T04:15:51.382Z,75.20
2023-02-03T04:18:20.544Z,75.39
2023-02-03T04:20:48.896Z,75.58
2023-02-03T04:23:18.625Z,75.91
2023-02-03T04:25:46.948Z,75.57
2023-02-03T04:28:15.376Z,76.17
2023-02-03T04:30:43.902Z,76.34
2023-02-03T04:33:12.259Z,75.67
2023-02-03T04:35:40.608Z,75.86
2023-02-03T04:38:08.956Z,76.23
2023-02-03T04:40:38.671Z,76.21
2023-02-03T04:43:08.734Z,75.71
2023-02-03T04:45:37.157Z,75.81
2023-02-03T04:48:05.985Z,75.48
2023-02-03T04:50:34.581Z,76.07
2023-02-03T04:53:02.981Z,75.46
2023-02-03T04:55:31.331Z,76.16
2023-02-03T04:58:01.788Z,75.78
2023-02-03T05:00:30.848Z,75.54
2023-02-03T05:02:59.343Z,75.83
2023-02-03T05:05:27.773Z,75.22
2023-02-03T05:07:58.074Z,75.61
2023-02-03T05:10:26.935Z,75.77
2023-02-03T05:12:55.522Z,75.34
2023-02-03T05:15:25.221Z,75.02
2023-02-03T05:17:56.843Z,75.28
2023-02-03T05:20:25.672Z,75.27
2023-02-03T05:22:54.282Z,75.41
2023-02-03T05:25:22.620Z,75.12
2023-02-03T05:27:56.356Z,75.20
2023-02-03T05:30:26.849Z,74.73
2023-02-03T05:32:55.387Z,74.72
2023-02-03T05:35:24.393Z,74.70
2023-02-03T05:37:52.689Z,74.27
2023-02-03T05:40:39.021Z,74.48
2023-02-03T05:43:07.818Z,74.67
2023-02-03T05:45:37.580Z,74.60
2023-02-03T05:48:07.406Z,74.55
2023-02-03T05:50:38.610Z,74.18
2023-02-03T05:53:08.469Z,74.12
2023-02-03T05:55:37.905Z,74.33
2023-02-03T05:58:06.301Z,73.70
2023-02-03T06:00:34.770Z,74.26
2023-02-03T06:03:05.227Z,74.01
2023-02-03T06:05:35.713Z,74.15
2023-02-03T06:08:04.337Z,73.41
2023-02-03T06:10:32.687Z,73.61
2023-02-03T06:13:01.146Z,74.04
2023-02-03T06:15:29.490Z,74.06
2023-02-03T06:17:57.899Z,73.66
2023-02-03T06:20:50.827Z,73.48
2023-02-03T06:23:19.997Z,73.70
2023-02-03T06:25:50.029Z,73.57
2023-02-03T06:28:18.439Z,73.75
2023-02-03T06:30:47.010Z,73.55
2023-02-03T06:33:15.354Z,73.72
2023-02-03T06:35:43.768Z,73.05
2023-02-03T06:38:13.502Z,73.03
2023-02-03T06:40:41.916Z,73.03
2023-02-03T06:43:10.239Z,73.28
2023-02-03T06:45:38.616Z,72.83
2023-02-03T06:48:07.663Z,73.17
2023-02-03T06:50:36.033Z,73.13
2023-02-03T06:53:04.540Z,73.20
2023-02-03T06:55:34.449Z,73.24
2023-02-03T06:58:02.819Z,72.71
2023-02-03T07:00:31.518Z,72.70
2023-02-03T07:03:01.448Z,72.89
2023-02-03T07:05:29.879Z,72.56
2023-02-03T07:07:59.094Z,72.54
2023-02-03T07:10:27.717Z,73.14
2023-02-03T07:13:03.909Z,72.72
2023-02-03T07:15:32.411Z,72.55
2023-02-03T07:18:00.746Z,72.68
2023-02-03T07:20:30.153Z,72.78
2023-02-03T07:22:59.640Z,73.01
2023-02-03T07:25:28.353Z,72.58
2023-02-03T07:27:58.378Z,72.67
2023-02-03T07:30:27.127Z,72.28
2023-02-03T07:32:55.716Z,72.70
2023-02-03T07:35:24.063Z,72.57
2023-02-03T07:37:52.496Z,72.70
2023-02-03T07:40:21.381Z,72.74
2023-02-03T07:43:00.147Z,72.13
2023-02-03T07:45:28.695Z,72.55
2023-02-03T07:47:57.077Z,72.46
2023-02-03T07:50:25.572Z,72.40
2023-02-03T07:52:55.557Z,71.90
2023-02-03T07:55:24.045Z,71.99
2023-02-03T07:57:54.375Z,71.93
2023-02-03T08:00:25.765Z,72.21
2023-02-03T08:02:54.758Z,71.74
2023-02-03T08:05:23.121Z,71.54
2023-02-03T08:07:51.523Z,71.80
2023-02-03T08:10:20.632Z,71.96
2023-02-03T08:12:49.035Z,71.77
2023-02-03T08:15:17.470Z,71.93
2023-02-03T08:17:47.240Z,71.39
2023-02-03T08:20:16.663Z,71.50
2023-02-03T08:22:45.016Z,71.28
2023-02-03T08:25:13.517Z,71.45
2023-02-03T08:27:46.017Z,71.47
2023-02-03T08:30:15.461Z,71.48
2023-02-03T08:32:43.877Z,71.14
2023-02-03T08:35:13.794Z,70.88
2023-02-03T08:37:42.439Z,71.03
2023-02-03T08:40:12.798Z,70.56
2023-02-03T08:42:41.158Z,70.50
2023-02-03T08:45:10.365Z,70.71
2023-02-03T08:47:39.380Z,70.71
2023-02-03T08:50:09.806Z,70.04
2023-02-03T08:52:40.619Z,69.68
2023-02-03T08:55:09.579Z,70.09
2023-02-03T08:57:39.988Z,69.61
2023-02-03T09:00:09.923Z,69.47
2023-02-03T09:02:38.348Z,69.51
2023-02-03T09:05:07.501Z,69.62
2023-02-03T09:07:35.922Z,69.03
2023-02-03T09:10:06.309Z,69.12
2023-02-03T09:12:34.909Z,69.25
2023-02-03T09:15:03.238Z,69.34
2023-02-03T09:17:31.559Z,69.02
2023-02-03T09:20:00.874Z,68.82
2023-02-03T09:22:29.198Z,68.75
2023-02-03T09:24:57.729Z,68.87
2023-02-03T09:27:29.169Z,68.54
2023-02-03T09:29:58.522Z,68.26
2023-02-03T09:32:28.525Z,68.17
2023-02-03T09:34:58.687Z,68.04
2023-02-03T09:37:30.435Z,67.59
2023-02-03T09:39:59.456Z,67.61
2023-02-03T09:42:52.977Z,67.00
2023-02-03T09:45:27.234Z,67.19
2023-02-03T09:48:01.773Z,67.47
2023-02-03T09:50:33.195Z,67.27
2023-02-03T09:53:08.036Z,66.90
2023-02-03T09:55:40.871Z,66.64
2023-02-03T09:58:13.545Z,66.76
2023-02-03T10:00:44.704Z,66.36
2023-02-03T10:03:24.799Z,66.23
2023-02-03T10:06:13.786Z,66.06
2023-02-03T10:08:59.766Z,65.99
2023-02-03T10:11:46.639Z,65.64
2023-02-03T10:14:33.966Z,65.72
2023-02-03T10:17:13.285Z,65.75
2023-02-03T10:19:47.636Z,66.07
2023-02-03T10:22:19.889Z,65.36
2023-02-03T10:24:51.820Z,65.22
2023-02-03T10:27:23.473Z,65.00
2023-02-03T10:29:59.236Z,65.21
2023-02-03T10:32:28.669Z,65.00
2023-02-03T10:34:59.182Z,64.46
2023-02-03T10:37:32.257Z,64.57
2023-02-03T10:40:02.901Z,64.57
2023-02-03T10:42:53.275Z,64.35
2023-02-03T10:45:23.296Z,64.10
2023-02-03T10:47:54.679Z,64.12
2023-02-03T10:50:31.566Z,63.62
2023-02-03T10:53:23.301Z,63.52
2023-02-03T10:56:01.938Z,63.27
2023-02-03T10:58:33.410Z,63.39
2023-02-03T11:01:11.755Z,63.19
2023-02-03T11:03:43.419Z,62.96
2023-02-03T11:06:13.825Z,62.83
2023-02-03T11:08:44.164Z,63.01
2023-02-03T11:11:16.907Z,63.06
2023-02-03T11:13:45.594Z,62.83
2023-02-03T11:16:18.336Z,62.62
2023-02-03T11:18:56.403Z,62.47
2023-02-03T11:21:31.503Z,62.74
2023-02-03T11:24:05.975Z,62.58
2023-02-03T11:26:43.906Z,62.39
2023-02-03T11:29:22.775Z,62.56
2023-02-03T11:31:56.327Z,62.05
2023-02-03T11:34:28.213Z,62.32
2023-02-03T11:36:57.095Z,62.39
2023-02-03T11:39:28.542Z,62.16
2023-02-03T11:41:57.772Z,62.52
2023-02-03T11:44:29.599Z,62.51
2023-02-03T11:47:03.375Z,62.22
2023-02-03T11:50:05.390Z,61.79
2023-02-03T11:53:10.982Z,61.89
2023-02-03T11:55:53.342Z,62.20
2023-02-03T11:58:44.501Z,62.35
2023-02-03T12:01:21.289Z,62.61
2023-02-03T12:04:13.265Z,61.94
2023-02-03T12:06:56.026Z,62.11
2023-02-03T12:09:32.790Z,61.83
2023-02-03T12:12:26.200Z,61.62
2023-02-03T12:15:08.003Z,61.79
2023-02-03T12:17:51.887Z,61.58
2023-02-03T12:20:40.512Z,61.64
2023-02-03T12:23:20.446Z,61.81
2023-02-03T12:26:01.872Z,61.72
2023-02-03T12:28:43.217Z,61.70
2023-02-03T12:31:17.576Z,61.65
2023-02-03T12:33:51.872Z,61.66
2023-02-03T12:36:26.007Z,61.68
2023-02-03T12:38:58.161Z,61.65
2023-02-03T12:41:30.604Z,61.74
2023-02-03T12:44:05.223Z,61.82
2023-02-03T12:46:41.731Z,61.65
2023-02-03T12:49:16.673Z,61.35
2023-02-03T12:51:50.995Z,61.45
2023-02-03T12:54:34.339Z,61.38
2023-02-03T12:57:17.169Z,61.55
2023-02-03T12:59:58.883Z,61.84
2023-02-03T13:02:31.484Z,61.84
2023-02-03T13:05:06.667Z,61.79
2023-02-03T13:07:42.609Z,62.11
2023-02-03T13:10:20.688Z,61.85
2023-02-03T13:12:52.677Z,62.19
2023-02-03T13:15:27.561Z,61.91
2023-02-03T13:18:04.975Z,61.99
2023-02-03T13:20:37.202Z,61.94
2023-02-03T13:23:10.569Z,62.01
2023-02-03T13:25:53.565Z,61.95
2023-02-03T13:28:35.751Z,61.81
2023-02-03T13:31:31.810Z,61.77
2023-02-03T13:34:41.515Z,61.80
2023-02-03T13:37:29.138Z,62.27
2023-02-03T13:40:15.468Z,62.43
2023-02-03T13:42:49.475Z,62.02
2023-02-03T13:45:26.435Z,62.26
2023-02-03T13:47:58.338Z,62.24
2023-02-03T13:50:29.872Z,62.18
2023-02-03T13:53:02.196Z,62.24
2023-02-03T13:55:36.992Z,62.26
2023-02-03T13:58:08.378Z,62.22
2023-02-03T14:01:07.591Z,62.19
2023-02-03T14:03:45.663Z,62.13
2023-02-03T14:07:00.012Z,61.99
2023-02-03T14:09:39.721Z,62.19
2023-02-03T14:12:21.238Z,62.02
2023-02-03T14:15:22.297Z,62.03
2023-02-03T14:18:00.242Z,62.33
2023-02-03T14:20:55.270Z,62.14
2023-02-03T14:23:44.630Z,62.34
2023-02-03T14:26:24.192Z,61.98
2023-02-03T14:28:54.235Z,62.38
2023-02-03T14:31:23.917Z,62.39
2023-02-03T14:33:57.385Z,62.11
2023-02-03T14:36:36.030Z,61.86
2023-02-03T14:39:22.578Z,61.83
2023-02-03T14:41:57.493Z,61.77
2023-02-03T14:44:37.340Z,61.66
2023-02-03T14:47:16.782Z,61.59
2023-02-03T14:50:02.838Z,61.48
2023-02-03T14:52:54.938Z,61.56
2023-02-03T14:55:49.426Z,61.26
2023-02-03T14:58:27.437Z,61.28
2023-02-03T15:00:57.892Z,61.51
2023-02-03T15:03:30.309Z,61.13
2023-02-03T15:06:03.231Z,61.37
2023-02-03T15:08:44.158Z,61.34
2023-02-03T15:11:31.291Z,61.26
2023-02-03T15:14:25.037Z,61.21
2023-02-03T15:17:00.193Z,61.30
2023-02-03T15:19:30.763Z,61.13
2023-02-03T15:21:59.278Z,61.35
2023-02-03T15:24:27.627Z,61.10
2023-02-03T15:26:57.406Z,61.17
2023-02-03T15:29:32.153Z,60.81
2023-02-03T15:32:13.841Z,60.88
2023-02-03T15:34:45.767Z,60.97
2023-02-03T15:37:20.157Z,60.85
2023-02-03T15:39:56.943Z,60.57
2023-02-03T15:42:31.135Z,60.77
2023-02-03T15:45:04.878Z,60.80
2023-02-03T15:47:36.978Z,61.05
2023-02-03T15:50:23.394Z,60.56
2023-02-03T15:52:53.859Z,60.69
2023-02-03T15:55:33.307Z,60.80
2023-02-03T15:58:03.943Z,60.51
2023-02-03T16:00:36.475Z,60.48
2023-02-03T16:03:16.445Z,60.59
2023-02-03T16:05:48.720Z,60.31
2023-02-03T16:08:37.496Z,60.27
2023-02-03T16:11:25.347Z,60.33
2023-02-03T16:13:55.450Z,60.45
2023-02-03T16:16:26.510Z,60.35
2023-02-03T16:18:58.843Z,60.49
2023-02-03T16:21:31.008Z,60.28
2023-02-03T16:24:00.157Z,60.50
2023-02-03T16:26:30.220Z,60.11
2023-02-03T16:29:33.161Z,59.80
2023-02-03T16:32:19.570Z,59.85
2023-02-03T16:35:06.791Z,59.91
2023-02-03T16:38:01.942Z,59.78
2023-02-03T16:40:47.987Z,59.41
2023-02-03T16:43:35.137Z,59.76
2023-02-03T16:46:21.058Z,59.40
2023-02-03T16:49:06.986Z,59.46
2023-02-03T16:51:40.930Z,59.19
2023-02-03T16:54:14.065Z,59.39
2023-02-03T16:56:42.492Z,59.34
2023-02-03T16:59:10.978Z,59.16
2023-02-03T17:01:39.422Z,59.11
2023-02-03T17:04:08.226Z,58.90
2023-02-03T17:06:40.101Z,58.73
2023-02-03T17:09:08.564Z,59.11
2023-02-03T17:11:36.891Z,59.16
2023-02-03T17:14:05.321Z,59.19
2023-02-03T17:16:33.824Z,58.98
2023-02-03T17:19:02.217Z,59.05
2023-02-03T17:21:31.676Z,59.30
2023-02-03T17:24:09.880Z,58.96
2023-02-03T17:26:38.254Z,59.00
2023-02-03T17:29:06.824Z,59.13
2023-02-03T17:31:35.178Z,59.49
2023-02-03T17:34:03.508Z,59.24
2023-02-03T17:36:31.858Z,59.41
2023-02-03T17:55:34.165Z,60.52
2023-02-03T17:58:03.984Z,61.02
2023-02-03T18:00:32.688Z,61.38
2023-02-03T18:03:01.167Z,62.12
2023-02-03T18:05:29.913Z,62.62
2023-02-03T18:08:03.109Z,62.99
2023-02-03T18:10:37.591Z,63.39
2023-02-03T18:13:07.388Z,63.62
2023-02-03T18:15:37.829Z,63.99
2023-02-03T18:18:06.542Z,63.85
2023-02-03T18:20:35.047Z,64.27
2023-02-03T18:23:06.157Z,64.63
2023-02-03T18:25:36.632Z,64.89
2023-02-03T18:28:05.353Z,65.45
2023-02-03T18:30:37.678Z,65.67
2023-02-03T18:33:06.079Z,66.01
2023-02-03T18:35:34.644Z,66.30
2023-02-03T18:38:03.015Z,66.47
2023-02-03T18:40:33.471Z,66.97
2023-02-03T18:43:02.358Z,67.30
2023-02-03T18:45:34.242Z,67.70
2023-02-03T18:48:03.926Z,68.03
2023-02-03T18:50:32.571Z,67.71
2023-02-03T18:53:01.094Z,68.38
2023-02-03T18:55:29.382Z,68.30
2023-02-03T18:57:57.865Z,68.28
2023-02-03T19:00:26.518Z,68.33
2023-02-03T19:02:55.478Z,68.39
2023-02-03T19:05:25.286Z,69.07
2023-02-03T19:07:53.609Z,69.14
2023-02-03T19:10:21.961Z,68.87
2023-02-03T19:12:50.350Z,69.06
2023-02-03T19:15:19.331Z,68.86
2023-02-03T19:17:49.280Z,69.09
2023-02-03T19:20:17.830Z,68.93
2023-02-03T19:22:47.585Z,69.31
2023-02-03T19:25:15.972Z,68.99
2023-02-03T19:27:44.386Z,69.14
2023-02-03T19:30:13.592Z,68.75
2023-02-03T19:32:43.334Z,69.00
2023-02-03T19:35:13.729Z,68.89
2023-02-03T19:37:42.499Z,69.17
2023-02-03T19:40:13.020Z,69.44
2023-02-03T19:42:42.957Z,69.36
2023-02-03T19:45:12.709Z,69.08
2023-02-03T19:47:41.308Z,69.37
2023-02-03T19:50:11.653Z,69.28
2023-02-03T19:52:47.137Z,69.50
2023-02-03T19:55:17.243Z,69.48
2023-02-03T19:57:45.598Z,69.64
2023-02-03T20:00:15.018Z,69.97
2023-02-03T20:02:44.536Z,69.58
2023-02-03T20:05:13.232Z,69.74
2023-02-03T20:07:41.657Z,70.11
2023-02-03T20:10:11.742Z,69.83
2023-02-03T20:12:41.724Z,69.90
2023-02-03T20:15:10.320Z,70.12
2023-02-03T20:17:38.694Z,70.44
2023-02-03T20:20:07.658Z,70.00
2023-02-03T20:22:36.174Z,70.07
2023-02-03T20:25:05.864Z,70.37
2023-02-03T20:27:34.277Z,70.20
2023-02-03T20:30:04.229Z,70.59
2023-02-03T20:32:32.539Z,70.31
2023-02-03T20:35:01.012Z,70.32
2023-02-03T20:37:29.348Z,70.26
2023-02-03T20:39:57.710Z,70.59
2023-02-03T20:42:26.171Z,70.47
2023-02-03T20:44:55.275Z,70.50
2023-02-03T20:47:25.068Z,70.80
2023-02-03T20:49:53.748Z,70.50
2023-02-03T20:52:22.493Z,70.65
2023-02-03T20:54:51.409Z,70.81
2023-02-03T20:57:20.640Z,71.03
2023-02-03T20:59:48.967Z,70.74
2023-02-03T21:02:22.880Z,71.21
2023-02-03T21:04:57.763Z,70.88
2023-02-03T21:07:29.919Z,71.17
2023-02-03T21:09:59.157Z,71.20
2023-02-03T21:12:29.226Z,71.51
2023-02-03T21:14:57.759Z,71.41
2023-02-03T21:17:27.724Z,71.56
2023-02-03T21:19:57.676Z,71.15
2023-02-03T21:22:30.184Z,71.40
2023-02-03T21:24:59.953Z,71.45
2023-02-03T21:27:30.582Z,71.77
2023-02-03T21:30:01.546Z,71.72
2023-02-03T21:32:37.880Z,71.58
2023-02-03T21:35:24.069Z,72.23
2023-02-03T21:37:56.030Z,71.67
2023-02-03T21:40:27.259Z,71.57
2023-02-03T21:42:56.050Z,71.70
2023-02-03T21:45:45.038Z,71.99
2023-02-03T21:48:36.770Z,71.78
2023-02-03T21:51:16.116Z,71.94
2023-02-03T21:53:57.495Z,72.21
2023-02-03T21:56:30.194Z,72.18
2023-02-03T21:58:59.864Z,72.06
2023-02-03T22:01:33.479Z,72.29
2023-02-03T22:04:03.885Z,72.21
2023-02-03T22:06:42.098Z,72.60
2023-02-03T22:09:12.922Z,72.34
2023-02-03T22:11:41.457Z,72.63
2023-02-03T22:14:09.828Z,72.36
2023-02-03T22:16:38.295Z,72.64
2023-02-03T22:19:06.720Z,72.41
2023-02-03T22:21:36.033Z,72.65
2023-02-03T22:24:06.744Z,72.52
2023-02-03T22:26:35.161Z,72.58
2023-02-03T22:29:03.573Z,72.60
2023-02-03T22:31:31.941Z,72.72
2023-02-03T22:34:00.397Z,72.81
2023-02-03T22:36:28.767Z,73.16
2023-02-03T22:39:02.045Z,73.33
2023-02-03T22:41:31.724Z,72.92
2023-02-03T22:44:00.077Z,73.37
2023-02-03T22:46:28.523Z,72.97
2023-02-03T22:48:57.089Z,73.16
2023-02-03T22:51:25.432Z,73.16
2023-02-03T22:53:53.809Z,73.54
2023-02-03T22:56:23.591Z,73.41
2023-02-03T22:58:53.389Z,73.22
2023-02-03T23:01:23.347Z,73.07
2023-02-03T23:03:52.101Z,73.31
2023-02-03T23:06:20.774Z,73.50
2023-02-03T23:08:49.096Z,72.94
2023-02-03T23:11:17.497Z,73.10
2023-02-03T23:13:46.253Z,73.52
2023-02-03T23:16:16.059Z,73.74
2023-02-03T23:18:44.424Z,73.44
2023-02-03T23:21:12.828Z,73.56
2023-02-03T23:23:41.380Z,73.96
2023-02-03T23:26:09.782Z,74.32
2023-02-03T23:28:38.147Z,74.20
2023-02-03T23:31:06.862Z,74.43
2023-02-03T23:33:36.556Z,74.23
2023-02-03T23:36:04.281Z,74.87
2023-02-03T23:38:33.417Z,74.64
2023-02-03T23:41:02.200Z,75.22
2023-02-03T23:43:30.512Z,75.46
2023-02-03T23:45:58.882Z,75.44
2023-02-03T23:48:27.221Z,75.49
2023-02-03T23:50:56.922Z,75.69
2023-02-03T23:53:25.277Z,75.81
2023-02-03T23:55:53.719Z,75.70
2023-02-03T23:58:22.146Z,75.80
